sensor_id;sensor_type;location;lat;lon;timestamp;P1;durP1;ratioP1;P2;durP2;ratioP2
73814;SDS011;62145;55.648;37.602;2023-04-07T00:01:26;4.68;;;1.40;;
73814;SDS011;62145;55.648;37.602;2023-04-07T00:03:51;3.90;;;1.23;;
73814;SDS011;62145;55.648;37.602;2023-04-07T00:06:17;7.93;;;1.80;;
73814;SDS011;62145;55.648;37.602;2023-04-07T00:08:43;4.33;;;1.23;;
73814;SDS011;62145;55.648;37.602;2023-04-07T00:11:09;5.18;;;1.58;;
73814;SDS011;62145;55.648;37.602;2023-04-07T00:13:34;4.47;;;1.30;;
73814;SDS011;62145;55.648;37.602;2023-04-07T00:16:00;7.68;;;1.48;;
73814;SDS011;62145;55.648;37.602;2023-04-07T00:18:26;3.88;;;1.50;;
73814;SDS011;62145;55.648;37.602;2023-04-07T00:20:52;4.37;;;1.30;;
73814;SDS011;62145;55.648;37.602;2023-04-07T00:23:17;5.28;;;1.60;;
73814;SDS011;62145;55.648;37.602;2023-04-07T00:25:44;7.20;;;1.60;;
73814;SDS011;62145;55.648;37.602;2023-04-07T00:28:09;4.80;;;1.23;;
73814;SDS011;62145;55.648;37.602;2023-04-07T00:30:35;5.67;;;1.50;;
73814;SDS011;62145;55.648;37.602;2023-04-07T00:33:01;4.78;;;1.25;;
73814;SDS011;62145;55.648;37.602;2023-04-07T00:35:27;6.43;;;1.50;;
73814;SDS011;62145;55.648;37.602;2023-04-07T00:37:53;5.78;;;1.80;;
73814;SDS011;62145;55.648;37.602;2023-04-07T00:40:18;4.15;;;1.40;;
73814;SDS011;62145;55.648;37.602;2023-04-07T00:42:44;6.70;;;1.60;;
73814;SDS011;62145;55.648;37.602;2023-04-07T00:45:11;5.63;;;1.58;;
73814;SDS011;62145;55.648;37.602;2023-04-07T00:47:37;5.45;;;1.77;;
73814;SDS011;62145;55.648;37.602;2023-04-07T00:50:03;3.67;;;1.30;;
73814;SDS011;62145;55.648;37.602;2023-04-07T00:52:31;5.75;;;1.80;;
73814;SDS011;62145;55.648;37.602;2023-04-07T00:54:57;4.63;;;1.27;;
73814;SDS011;62145;55.648;37.602;2023-04-07T00:57:24;5.05;;;1.77;;
73814;SDS011;62145;55.648;37.602;2023-04-07T00:59:50;3.90;;;1.35;;
73814;SDS011;62145;55.648;37.602;2023-04-07T01:02:35;4.85;;;1.60;;
73814;SDS011;62145;55.648;37.602;2023-04-07T01:05:17;6.25;;;1.27;;
73814;SDS011;62145;55.648;37.602;2023-04-07T01:10:41;7.20;;;1.73;;
73814;SDS011;62145;55.648;37.602;2023-04-07T01:13:21;3.92;;;1.40;;
73814;SDS011;62145;55.648;37.602;2023-04-07T01:15:54;5.30;;;1.73;;
73814;SDS011;62145;55.648;37.602;2023-04-07T01:18:28;4.72;;;1.40;;
73814;SDS011;62145;55.648;37.602;2023-04-07T01:20:59;5.25;;;1.50;;
73814;SDS011;62145;55.648;37.602;2023-04-07T01:31:32;5.00;;;1.42;;
73814;SDS011;62145;55.648;37.602;2023-04-07T01:33:58;4.15;;;1.65;;
73814;SDS011;62145;55.648;37.602;2023-04-07T01:36:26;5.70;;;1.90;;
73814;SDS011;62145;55.648;37.602;2023-04-07T01:38:55;5.35;;;1.60;;
73814;SDS011;62145;55.648;37.602;2023-04-07T01:41:23;6.30;;;1.60;;
73814;SDS011;62145;55.648;37.602;2023-04-07T01:43:50;5.15;;;1.60;;
73814;SDS011;62145;55.648;37.602;2023-04-07T01:46:16;6.40;;;1.50;;
73814;SDS011;62145;55.648;37.602;2023-04-07T01:48:42;7.05;;;1.70;;
73814;SDS011;62145;55.648;37.602;2023-04-07T01:51:08;4.83;;;1.50;;
73814;SDS011;62145;55.648;37.602;2023-04-07T01:53:36;4.93;;;1.65;;
73814;SDS011;62145;55.648;37.602;2023-04-07T01:56:03;5.57;;;1.70;;
73814;SDS011;62145;55.648;37.602;2023-04-07T01:58:31;6.63;;;1.60;;
73814;SDS011;62145;55.648;37.602;2023-04-07T02:00:57;4.47;;;1.60;;
73814;SDS011;62145;55.648;37.602;2023-04-07T02:03:26;5.13;;;1.70;;
73814;SDS011;62145;55.648;37.602;2023-04-07T02:06:05;10.05;;;1.90;;
73814;SDS011;62145;55.648;37.602;2023-04-07T02:08:35;5.38;;;1.70;;
73814;SDS011;62145;55.648;37.602;2023-04-07T02:11:06;5.60;;;1.50;;
73814;SDS011;62145;55.648;37.602;2023-04-07T02:13:34;5.20;;;1.80;;
73814;SDS011;62145;55.648;37.602;2023-04-07T02:16:01;4.45;;;1.45;;
73814;SDS011;62145;55.648;37.602;2023-04-07T02:18:29;6.78;;;1.70;;
73814;SDS011;62145;55.648;37.602;2023-04-07T02:20:56;4.70;;;1.50;;
73814;SDS011;62145;55.648;37.602;2023-04-07T02:23:23;4.78;;;1.50;;
73814;SDS011;62145;55.648;37.602;2023-04-07T02:25:48;5.07;;;1.57;;
73814;SDS011;62145;55.648;37.602;2023-04-07T02:28:14;4.07;;;1.55;;
73814;SDS011;62145;55.648;37.602;2023-04-07T02:30:40;7.40;;;1.52;;
73814;SDS011;62145;55.648;37.602;2023-04-07T02:33:06;4.03;;;1.13;;
73814;SDS011;62145;55.648;37.602;2023-04-07T02:35:32;4.93;;;2.13;;
73814;SDS011;62145;55.648;37.602;2023-04-07T02:38:00;5.18;;;1.38;;
73814;SDS011;62145;55.648;37.602;2023-04-07T02:40:26;5.60;;;1.60;;
73814;SDS011;62145;55.648;37.602;2023-04-07T02:42:52;4.88;;;1.70;;
73814;SDS011;62145;55.648;37.602;2023-04-07T02:45:21;4.40;;;1.17;;
73814;SDS011;62145;55.648;37.602;2023-04-07T02:47:47;5.87;;;1.83;;
73814;SDS011;62145;55.648;37.602;2023-04-07T02:50:16;4.57;;;1.40;;
73814;SDS011;62145;55.648;37.602;2023-04-07T02:52:42;5.03;;;1.50;;
73814;SDS011;62145;55.648;37.602;2023-04-07T02:55:11;5.88;;;1.52;;
73814;SDS011;62145;55.648;37.602;2023-04-07T02:57:37;8.05;;;1.65;;
73814;SDS011;62145;55.648;37.602;2023-04-07T03:00:07;6.47;;;1.80;;
73814;SDS011;62145;55.648;37.602;2023-04-07T03:02:52;5.70;;;1.88;;
73814;SDS011;62145;55.648;37.602;2023-04-07T03:05:18;5.43;;;1.85;;
73814;SDS011;62145;55.648;37.602;2023-04-07T03:07:44;5.97;;;1.80;;
73814;SDS011;62145;55.648;37.602;2023-04-07T03:10:10;5.30;;;1.80;;
73814;SDS011;62145;55.648;37.602;2023-04-07T03:12:37;4.93;;;1.88;;
73814;SDS011;62145;55.648;37.602;2023-04-07T03:15:03;6.40;;;1.80;;
73814;SDS011;62145;55.648;37.602;2023-04-07T03:17:29;4.60;;;1.60;;
73814;SDS011;62145;55.648;37.602;2023-04-07T03:19:55;6.03;;;1.92;;
73814;SDS011;62145;55.648;37.602;2023-04-07T03:22:21;4.70;;;1.83;;
73814;SDS011;62145;55.648;37.602;2023-04-07T03:24:50;7.60;;;2.03;;
73814;SDS011;62145;55.648;37.602;2023-04-07T03:27:17;6.43;;;2.30;;
73814;SDS011;62145;55.648;37.602;2023-04-07T03:29:45;8.52;;;2.10;;
73814;SDS011;62145;55.648;37.602;2023-04-07T03:32:13;6.80;;;1.77;;
73814;SDS011;62145;55.648;37.602;2023-04-07T03:34:39;6.28;;;1.88;;
73814;SDS011;62145;55.648;37.602;2023-04-07T03:37:05;6.13;;;1.90;;
73814;SDS011;62145;55.648;37.602;2023-04-07T03:39:34;7.63;;;2.33;;
73814;SDS011;62145;55.648;37.602;2023-04-07T03:42:09;7.55;;;1.98;;
73814;SDS011;62145;55.648;37.602;2023-04-07T03:44:35;7.65;;;2.22;;
73814;SDS011;62145;55.648;37.602;2023-04-07T03:47:01;4.95;;;2.00;;
73814;SDS011;62145;55.648;37.602;2023-04-07T03:49:28;8.25;;;2.38;;
73814;SDS011;62145;55.648;37.602;2023-04-07T03:51:58;6.78;;;2.50;;
73814;SDS011;62145;55.648;37.602;2023-04-07T03:54:24;8.02;;;2.17;;
73814;SDS011;62145;55.648;37.602;2023-04-07T03:56:49;6.30;;;2.17;;
73814;SDS011;62145;55.648;37.602;2023-04-07T03:59:20;7.68;;;2.00;;
73814;SDS011;62145;55.648;37.602;2023-04-07T04:01:54;7.53;;;2.50;;
73814;SDS011;62145;55.648;37.602;2023-04-07T04:04:20;7.05;;;1.90;;
73814;SDS011;62145;55.648;37.602;2023-04-07T04:06:47;7.10;;;2.00;;
73814;SDS011;62145;55.648;37.602;2023-04-07T04:09:21;6.75;;;2.08;;
73814;SDS011;62145;55.648;37.602;2023-04-07T04:11:48;5.20;;;2.13;;
73814;SDS011;62145;55.648;37.602;2023-04-07T04:14:14;8.15;;;2.10;;
73814;SDS011;62145;55.648;37.602;2023-04-07T04:16:45;7.05;;;2.50;;
73814;SDS011;62145;55.648;37.602;2023-04-07T04:19:23;6.57;;;2.27;;
73814;SDS011;62145;55.648;37.602;2023-04-07T04:21:50;7.50;;;2.30;;
73814;SDS011;62145;55.648;37.602;2023-04-07T04:24:16;7.28;;;2.50;;
73814;SDS011;62145;55.648;37.602;2023-04-07T04:26:43;7.28;;;2.25;;
73814;SDS011;62145;55.648;37.602;2023-04-07T04:29:11;9.00;;;2.50;;
73814;SDS011;62145;55.648;37.602;2023-04-07T04:31:39;6.77;;;2.40;;
73814;SDS011;62145;55.648;37.602;2023-04-07T04:34:06;7.28;;;2.03;;
73814;SDS011;62145;55.648;37.602;2023-04-07T04:36:32;6.82;;;2.50;;
73814;SDS011;62145;55.648;37.602;2023-04-07T04:39:02;8.07;;;2.70;;
73814;SDS011;62145;55.648;37.602;2023-04-07T04:41:28;6.60;;;2.30;;
73814;SDS011;62145;55.648;37.602;2023-04-07T04:43:55;8.27;;;2.60;;
73814;SDS011;62145;55.648;37.602;2023-04-07T04:46:23;7.32;;;2.60;;
73814;SDS011;62145;55.648;37.602;2023-04-07T04:48:49;8.23;;;2.45;;
73814;SDS011;62145;55.648;37.602;2023-04-07T04:51:19;9.65;;;2.80;;
73814;SDS011;62145;55.648;37.602;2023-04-07T04:53:50;7.78;;;2.42;;
73814;SDS011;62145;55.648;37.602;2023-04-07T04:56:17;8.67;;;2.67;;
73814;SDS011;62145;55.648;37.602;2023-04-07T04:58:45;8.10;;;3.03;;
73814;SDS011;62145;55.648;37.602;2023-04-07T05:01:17;10.70;;;2.85;;
73814;SDS011;62145;55.648;37.602;2023-04-07T05:03:50;9.60;;;2.85;;
73814;SDS011;62145;55.648;37.602;2023-04-07T05:06:22;8.57;;;2.55;;
73814;SDS011;62145;55.648;37.602;2023-04-07T05:08:50;9.83;;;2.77;;
73814;SDS011;62145;55.648;37.602;2023-04-07T05:11:19;12.38;;;3.00;;
73814;SDS011;62145;55.648;37.602;2023-04-07T05:13:49;9.10;;;2.80;;
73814;SDS011;62145;55.648;37.602;2023-04-07T05:16:15;8.95;;;3.08;;
73814;SDS011;62145;55.648;37.602;2023-04-07T05:18:42;11.60;;;3.30;;
73814;SDS011;62145;55.648;37.602;2023-04-07T05:21:08;9.10;;;3.38;;
73814;SDS011;62145;55.648;37.602;2023-04-07T05:23:35;7.82;;;2.92;;
73814;SDS011;62145;55.648;37.602;2023-04-07T05:26:02;8.98;;;2.90;;
73814;SDS011;62145;55.648;37.602;2023-04-07T05:28:29;7.47;;;2.90;;
73814;SDS011;62145;55.648;37.602;2023-04-07T05:30:58;9.10;;;3.35;;
73814;SDS011;62145;55.648;37.602;2023-04-07T05:33:28;11.02;;;3.40;;
73814;SDS011;62145;55.648;37.602;2023-04-07T05:35:55;10.40;;;3.20;;
73814;SDS011;62145;55.648;37.602;2023-04-07T05:38:20;8.90;;;3.70;;
73814;SDS011;62145;55.648;37.602;2023-04-07T05:40:47;9.27;;;3.22;;
73814;SDS011;62145;55.648;37.602;2023-04-07T05:43:22;8.88;;;3.10;;
73814;SDS011;62145;55.648;37.602;2023-04-07T05:45:48;7.77;;;3.10;;
73814;SDS011;62145;55.648;37.602;2023-04-07T05:48:14;12.00;;;3.15;;
73814;SDS011;62145;55.648;37.602;2023-04-07T05:50:43;12.73;;;3.40;;
73814;SDS011;62145;55.648;37.602;2023-04-07T05:53:12;10.65;;;3.30;;
73814;SDS011;62145;55.648;37.602;2023-04-07T05:55:40;9.33;;;3.70;;
73814;SDS011;62145;55.648;37.602;2023-04-07T05:58:08;11.35;;;3.67;;
73814;SDS011;62145;55.648;37.602;2023-04-07T06:00:34;12.30;;;3.38;;
73814;SDS011;62145;55.648;37.602;2023-04-07T06:03:06;9.88;;;3.55;;
73814;SDS011;62145;55.648;37.602;2023-04-07T06:05:45;10.25;;;3.33;;
73814;SDS011;62145;55.648;37.602;2023-04-07T06:08:11;8.67;;;3.40;;
73814;SDS011;62145;55.648;37.602;2023-04-07T06:10:37;11.63;;;3.60;;
73814;SDS011;62145;55.648;37.602;2023-04-07T06:13:05;13.65;;;3.67;;
73814;SDS011;62145;55.648;37.602;2023-04-07T06:15:31;11.30;;;3.37;;
73814;SDS011;62145;55.648;37.602;2023-04-07T06:17:57;9.88;;;3.42;;
73814;SDS011;62145;55.648;37.602;2023-04-07T06:20:23;11.85;;;4.43;;
73814;SDS011;62145;55.648;37.602;2023-04-07T06:22:50;11.13;;;3.70;;
73814;SDS011;62145;55.648;37.602;2023-04-07T06:25:15;12.90;;;3.70;;
73814;SDS011;62145;55.648;37.602;2023-04-07T06:27:41;10.30;;;3.83;;
73814;SDS011;62145;55.648;37.602;2023-04-07T06:30:07;9.90;;;3.80;;
73814;SDS011;62145;55.648;37.602;2023-04-07T06:32:34;9.27;;;3.63;;
73814;SDS011;62145;55.648;37.602;2023-04-07T06:35:00;10.57;;;3.65;;
73814;SDS011;62145;55.648;37.602;2023-04-07T06:37:26;10.70;;;3.57;;
73814;SDS011;62145;55.648;37.602;2023-04-07T06:39:52;12.77;;;3.58;;
73814;SDS011;62145;55.648;37.602;2023-04-07T06:42:18;11.80;;;3.85;;
73814;SDS011;62145;55.648;37.602;2023-04-07T06:44:56;12.63;;;3.67;;
73814;SDS011;62145;55.648;37.602;2023-04-07T06:47:22;10.50;;;3.00;;
73814;SDS011;62145;55.648;37.602;2023-04-07T06:49:48;8.57;;;3.30;;
73814;SDS011;62145;55.648;37.602;2023-04-07T06:52:14;10.55;;;3.17;;
73814;SDS011;62145;55.648;37.602;2023-04-07T06:54:40;9.90;;;2.90;;
73814;SDS011;62145;55.648;37.602;2023-04-07T06:57:06;13.23;;;3.42;;
73814;SDS011;62145;55.648;37.602;2023-04-07T06:59:36;11.68;;;3.13;;
73814;SDS011;62145;55.648;37.602;2023-04-07T07:02:03;9.57;;;3.50;;
73814;SDS011;62145;55.648;37.602;2023-04-07T07:04:28;8.50;;;2.93;;
73814;SDS011;62145;55.648;37.602;2023-04-07T07:06:54;7.82;;;2.60;;
73814;SDS011;62145;55.648;37.602;2023-04-07T07:09:20;8.77;;;3.08;;
73814;SDS011;62145;55.648;37.602;2023-04-07T07:11:46;8.73;;;3.05;;
73814;SDS011;62145;55.648;37.602;2023-04-07T07:14:12;12.68;;;3.63;;
73814;SDS011;62145;55.648;37.602;2023-04-07T07:16:38;12.23;;;3.80;;
73814;SDS011;62145;55.648;37.602;2023-04-07T07:19:03;8.05;;;3.35;;
73814;SDS011;62145;55.648;37.602;2023-04-07T07:21:29;11.68;;;3.13;;
73814;SDS011;62145;55.648;37.602;2023-04-07T07:23:56;12.47;;;3.20;;
73814;SDS011;62145;55.648;37.602;2023-04-07T07:26:21;8.75;;;2.90;;
73814;SDS011;62145;55.648;37.602;2023-04-07T07:28:47;11.85;;;4.38;;
73814;SDS011;62145;55.648;37.602;2023-04-07T07:31:13;11.20;;;3.30;;
73814;SDS011;62145;55.648;37.602;2023-04-07T07:33:40;11.48;;;3.63;;
73814;SDS011;62145;55.648;37.602;2023-04-07T07:36:08;9.57;;;3.15;;
73814;SDS011;62145;55.648;37.602;2023-04-07T07:38:34;11.60;;;3.20;;
73814;SDS011;62145;55.648;37.602;2023-04-07T07:41:00;8.83;;;3.00;;
73814;SDS011;62145;55.648;37.602;2023-04-07T07:43:27;9.40;;;3.50;;
73814;SDS011;62145;55.648;37.602;2023-04-07T07:45:53;11.68;;;3.30;;
73814;SDS011;62145;55.648;37.602;2023-04-07T07:48:18;10.73;;;3.20;;
73814;SDS011;62145;55.648;37.602;2023-04-07T07:50:44;12.82;;;3.00;;
73814;SDS011;62145;55.648;37.602;2023-04-07T07:53:11;7.63;;;3.00;;
73814;SDS011;62145;55.648;37.602;2023-04-07T07:55:37;11.40;;;3.37;;
73814;SDS011;62145;55.648;37.602;2023-04-07T07:58:02;8.55;;;3.20;;
73814;SDS011;62145;55.648;37.602;2023-04-07T08:00:28;6.78;;;2.75;;
73814;SDS011;62145;55.648;37.602;2023-04-07T08:02:54;10.33;;;3.00;;
73814;SDS011;62145;55.648;37.602;2023-04-07T08:05:20;7.43;;;2.60;;
73814;SDS011;62145;55.648;37.602;2023-04-07T08:07:46;8.83;;;2.90;;
73814;SDS011;62145;55.648;37.602;2023-04-07T08:10:13;9.25;;;2.38;;
73814;SDS011;62145;55.648;37.602;2023-04-07T08:12:39;7.53;;;2.50;;
73814;SDS011;62145;55.648;37.602;2023-04-07T08:15:05;7.68;;;2.47;;
73814;SDS011;62145;55.648;37.602;2023-04-07T08:17:34;7.07;;;2.50;;
73814;SDS011;62145;55.648;37.602;2023-04-07T08:20:00;11.15;;;3.20;;
73814;SDS011;62145;55.648;37.602;2023-04-07T08:22:28;10.40;;;2.67;;
73814;SDS011;62145;55.648;37.602;2023-04-07T08:24:54;6.13;;;2.40;;
73814;SDS011;62145;55.648;37.602;2023-04-07T08:27:20;8.73;;;2.30;;
73814;SDS011;62145;55.648;37.602;2023-04-07T08:29:59;8.52;;;2.47;;
73814;SDS011;62145;55.648;37.602;2023-04-07T08:32:32;8.52;;;2.63;;
73814;SDS011;62145;55.648;37.602;2023-04-07T08:35:02;9.73;;;2.88;;
73814;SDS011;62145;55.648;37.602;2023-04-07T08:37:29;6.13;;;2.27;;
73814;SDS011;62145;55.648;37.602;2023-04-07T08:39:55;7.45;;;2.50;;
73814;SDS011;62145;55.648;37.602;2023-04-07T08:42:22;9.60;;;2.30;;
73814;SDS011;62145;55.648;37.602;2023-04-07T08:44:51;8.53;;;2.50;;
73814;SDS011;62145;55.648;37.602;2023-04-07T08:47:18;7.15;;;2.10;;
73814;SDS011;62145;55.648;37.602;2023-04-07T08:49:44;5.45;;;2.25;;
73814;SDS011;62145;55.648;37.602;2023-04-07T08:52:13;5.03;;;1.80;;
73814;SDS011;62145;55.648;37.602;2023-04-07T08:54:40;5.22;;;1.70;;
73814;SDS011;62145;55.648;37.602;2023-04-07T08:57:06;10.00;;;2.10;;
73814;SDS011;62145;55.648;37.602;2023-04-07T08:59:32;5.35;;;2.05;;
73814;SDS011;62145;55.648;37.602;2023-04-07T09:01:59;6.78;;;1.77;;
73814;SDS011;62145;55.648;37.602;2023-04-07T09:04:25;7.60;;;1.95;;
73814;SDS011;62145;55.648;37.602;2023-04-07T09:06:52;4.43;;;1.30;;
73814;SDS011;62145;55.648;37.602;2023-04-07T09:09:17;8.25;;;1.70;;
73814;SDS011;62145;55.648;37.602;2023-04-07T09:11:43;7.63;;;1.75;;
73814;SDS011;62145;55.648;37.602;2023-04-07T09:14:09;7.13;;;1.57;;
73814;SDS011;62145;55.648;37.602;2023-04-07T09:16:35;4.97;;;1.60;;
73814;SDS011;62145;55.648;37.602;2023-04-07T09:19:01;9.90;;;1.98;;
73814;SDS011;62145;55.648;37.602;2023-04-07T09:21:35;6.57;;;1.90;;
73814;SDS011;62145;55.648;37.602;2023-04-07T09:24:22;6.70;;;1.70;;
73814;SDS011;62145;55.648;37.602;2023-04-07T09:26:49;6.05;;;2.10;;
73814;SDS011;62145;55.648;37.602;2023-04-07T09:29:17;7.53;;;1.63;;
73814;SDS011;62145;55.648;37.602;2023-04-07T09:31:48;5.63;;;1.45;;
73814;SDS011;62145;55.648;37.602;2023-04-07T09:34:25;8.07;;;1.90;;
73814;SDS011;62145;55.648;37.602;2023-04-07T09:36:52;5.10;;;1.60;;
73814;SDS011;62145;55.648;37.602;2023-04-07T09:39:19;5.78;;;1.60;;
73814;SDS011;62145;55.648;37.602;2023-04-07T09:41:45;5.43;;;1.60;;
73814;SDS011;62145;55.648;37.602;2023-04-07T09:44:11;6.38;;;1.63;;
73814;SDS011;62145;55.648;37.602;2023-04-07T09:46:50;8.50;;;1.47;;
73814;SDS011;62145;55.648;37.602;2023-04-07T09:49:19;5.70;;;1.60;;
73814;SDS011;62145;55.648;37.602;2023-04-07T09:51:52;5.30;;;1.50;;
73814;SDS011;62145;55.648;37.602;2023-04-07T09:57:00;7.00;;;1.60;;
73814;SDS011;62145;55.648;37.602;2023-04-07T09:59:28;5.20;;;1.40;;
73814;SDS011;62145;55.648;37.602;2023-04-07T10:01:54;5.07;;;1.60;;
73814;SDS011;62145;55.648;37.602;2023-04-07T10:04:20;4.85;;;1.65;;
73814;SDS011;62145;55.648;37.602;2023-04-07T10:06:46;7.95;;;1.60;;
73814;SDS011;62145;55.648;37.602;2023-04-07T10:09:13;5.03;;;1.27;;
73814;SDS011;62145;55.648;37.602;2023-04-07T10:11:39;5.47;;;1.60;;
73814;SDS011;62145;55.648;37.602;2023-04-07T10:14:07;7.70;;;1.52;;
73814;SDS011;62145;55.648;37.602;2023-04-07T10:16:34;5.85;;;1.70;;
73814;SDS011;62145;55.648;37.602;2023-04-07T10:19:04;6.53;;;1.52;;
73814;SDS011;62145;55.648;37.602;2023-04-07T10:21:35;7.22;;;1.73;;
73814;SDS011;62145;55.648;37.602;2023-04-07T10:26:52;6.65;;;1.60;;
73814;SDS011;62145;55.648;37.602;2023-04-07T10:29:21;7.50;;;1.63;;
73814;SDS011;62145;55.648;37.602;2023-04-07T10:31:48;6.65;;;1.50;;
73814;SDS011;62145;55.648;37.602;2023-04-07T10:34:14;4.80;;;1.30;;
73814;SDS011;62145;55.648;37.602;2023-04-07T10:37:23;5.83;;;1.17;;
73814;SDS011;62145;55.648;37.602;2023-04-07T10:39:33;4.65;;;1.25;;
73814;SDS011;62145;55.648;37.602;2023-04-07T10:42:00;6.47;;;1.70;;
73814;SDS011;62145;55.648;37.602;2023-04-07T10:47:07;7.53;;;1.48;;
73814;SDS011;62145;55.648;37.602;2023-04-07T10:49:33;4.17;;;1.20;;
73814;SDS011;62145;55.648;37.602;2023-04-07T10:54:38;6.95;;;1.65;;
73814;SDS011;62145;55.648;37.602;2023-04-07T10:57:08;6.70;;;1.50;;
73814;SDS011;62145;55.648;37.602;2023-04-07T10:59:36;4.60;;;1.40;;
73814;SDS011;62145;55.648;37.602;2023-04-07T11:04:43;5.18;;;1.70;;
73814;SDS011;62145;55.648;37.602;2023-04-07T11:07:10;4.40;;;1.20;;
73814;SDS011;62145;55.648;37.602;2023-04-07T11:09:37;3.83;;;1.35;;
73814;SDS011;62145;55.648;37.602;2023-04-07T11:12:02;6.60;;;1.73;;
73814;SDS011;62145;55.648;37.602;2023-04-07T11:14:30;4.47;;;1.48;;
73814;SDS011;62145;55.648;37.602;2023-04-07T11:16:57;5.22;;;1.60;;
73814;SDS011;62145;55.648;37.602;2023-04-07T11:19:25;6.13;;;1.50;;
73814;SDS011;62145;55.648;37.602;2023-04-07T11:22:12;4.77;;;1.40;;
73814;SDS011;62145;55.648;37.602;2023-04-07T11:24:40;7.28;;;1.83;;
73814;SDS011;62145;55.648;37.602;2023-04-07T11:27:12;4.20;;;1.30;;
73814;SDS011;62145;55.648;37.602;2023-04-07T11:29:37;4.93;;;1.35;;
73814;SDS011;62145;55.648;37.602;2023-04-07T11:32:04;6.50;;;1.40;;
73814;SDS011;62145;55.648;37.602;2023-04-07T11:34:32;8.13;;;1.60;;
73814;SDS011;62145;55.648;37.602;2023-04-07T11:37:17;6.80;;;1.55;;
73814;SDS011;62145;55.648;37.602;2023-04-07T11:39:44;4.80;;;1.30;;
73814;SDS011;62145;55.648;37.602;2023-04-07T11:42:34;6.90;;;1.70;;
73814;SDS011;62145;55.648;37.602;2023-04-07T11:45:02;5.25;;;1.55;;
73814;SDS011;62145;55.648;37.602;2023-04-07T11:47:38;6.18;;;1.42;;
73814;SDS011;62145;55.648;37.602;2023-04-07T11:50:05;5.35;;;1.60;;
73814;SDS011;62145;55.648;37.602;2023-04-07T11:52:45;4.70;;;1.40;;
73814;SDS011;62145;55.648;37.602;2023-04-07T11:55:22;5.97;;;1.40;;
73814;SDS011;62145;55.648;37.602;2023-04-07T11:57:50;6.72;;;1.60;;
73814;SDS011;62145;55.648;37.602;2023-04-07T12:00:16;3.43;;;0.97;;
73814;SDS011;62145;55.648;37.602;2023-04-07T12:02:43;3.90;;;1.40;;
73814;SDS011;62145;55.648;37.602;2023-04-07T12:05:09;5.55;;;1.73;;
73814;SDS011;62145;55.648;37.602;2023-04-07T12:07:37;6.50;;;1.90;;
73814;SDS011;62145;55.648;37.602;2023-04-07T12:10:23;7.28;;;1.63;;
73814;SDS011;62145;55.648;37.602;2023-04-07T12:12:52;6.03;;;1.57;;
73814;SDS011;62145;55.648;37.602;2023-04-07T12:15:18;7.43;;;1.65;;
73814;SDS011;62145;55.648;37.602;2023-04-07T12:17:45;4.60;;;1.48;;
73814;SDS011;62145;55.648;37.602;2023-04-07T12:20:12;6.95;;;1.90;;
73814;SDS011;62145;55.648;37.602;2023-04-07T12:22:39;5.07;;;1.88;;
73814;SDS011;62145;55.648;37.602;2023-04-07T12:25:05;5.00;;;1.77;;
73814;SDS011;62145;55.648;37.602;2023-04-07T12:27:31;5.13;;;1.50;;
73814;SDS011;62145;55.648;37.602;2023-04-07T12:29:57;6.43;;;1.63;;
73814;SDS011;62145;55.648;37.602;2023-04-07T12:32:23;7.00;;;1.70;;
73814;SDS011;62145;55.648;37.602;2023-04-07T12:34:49;4.72;;;1.42;;
73814;SDS011;62145;55.648;37.602;2023-04-07T12:37:15;7.25;;;1.60;;
73814;SDS011;62145;55.648;37.602;2023-04-07T12:39:41;5.70;;;1.43;;
73814;SDS011;62145;55.648;37.602;2023-04-07T12:42:07;4.80;;;1.50;;
73814;SDS011;62145;55.648;37.602;2023-04-07T12:44:36;5.88;;;1.60;;
73814;SDS011;62145;55.648;37.602;2023-04-07T12:47:02;6.65;;;1.60;;
73814;SDS011;62145;55.648;37.602;2023-04-07T12:49:28;6.30;;;1.70;;
73814;SDS011;62145;55.648;37.602;2023-04-07T12:51:54;6.07;;;1.60;;
73814;SDS011;62145;55.648;37.602;2023-04-07T12:54:20;5.10;;;1.40;;
73814;SDS011;62145;55.648;37.602;2023-04-07T12:56:46;5.80;;;1.40;;
73814;SDS011;62145;55.648;37.602;2023-04-07T12:59:12;5.90;;;1.42;;
73814;SDS011;62145;55.648;37.602;2023-04-07T13:01:38;3.55;;;1.40;;
73814;SDS011;62145;55.648;37.602;2023-04-07T13:04:04;4.63;;;1.33;;
73814;SDS011;62145;55.648;37.602;2023-04-07T13:06:30;4.50;;;1.50;;
73814;SDS011;62145;55.648;37.602;2023-04-07T13:08:56;6.40;;;1.73;;
73814;SDS011;62145;55.648;37.602;2023-04-07T13:11:22;5.67;;;1.60;;
73814;SDS011;62145;55.648;37.602;2023-04-07T13:13:48;4.65;;;1.65;;
73814;SDS011;62145;55.648;37.602;2023-04-07T13:16:14;5.45;;;1.90;;
73814;SDS011;62145;55.648;37.602;2023-04-07T13:18:39;6.97;;;2.00;;
73814;SDS011;62145;55.648;37.602;2023-04-07T13:21:06;6.07;;;1.75;;
73814;SDS011;62145;55.648;37.602;2023-04-07T13:23:31;4.77;;;1.70;;
73814;SDS011;62145;55.648;37.602;2023-04-07T13:25:57;4.73;;;1.60;;
73814;SDS011;62145;55.648;37.602;2023-04-07T13:28:23;5.10;;;1.70;;
73814;SDS011;62145;55.648;37.602;2023-04-07T13:30:49;8.82;;;1.95;;
73814;SDS011;62145;55.648;37.602;2023-04-07T13:33:15;5.00;;;1.60;;
73814;SDS011;62145;55.648;37.602;2023-04-07T13:35:41;8.45;;;1.60;;
73814;SDS011;62145;55.648;37.602;2023-04-07T13:38:06;6.23;;;1.50;;
73814;SDS011;62145;55.648;37.602;2023-04-07T13:40:33;5.53;;;1.20;;
73814;SDS011;62145;55.648;37.602;2023-04-07T13:42:59;6.15;;;1.80;;
73814;SDS011;62145;55.648;37.602;2023-04-07T13:45:25;5.70;;;1.30;;
73814;SDS011;62145;55.648;37.602;2023-04-07T13:47:51;5.97;;;1.50;;
73814;SDS011;62145;55.648;37.602;2023-04-07T13:50:17;6.80;;;1.90;;
73814;SDS011;62145;55.648;37.602;2023-04-07T13:52:43;5.38;;;1.23;;
73814;SDS011;62145;55.648;37.602;2023-04-07T13:55:08;5.30;;;1.30;;
73814;SDS011;62145;55.648;37.602;2023-04-07T13:57:34;4.57;;;1.40;;
73814;SDS011;62145;55.648;37.602;2023-04-07T14:00:00;7.25;;;1.50;;
73814;SDS011;62145;55.648;37.602;2023-04-07T14:02:26;4.50;;;1.40;;
73814;SDS011;62145;55.648;37.602;2023-04-07T14:04:54;5.57;;;1.38;;
73814;SDS011;62145;55.648;37.602;2023-04-07T14:07:20;3.60;;;1.02;;
73814;SDS011;62145;55.648;37.602;2023-04-07T14:09:47;4.23;;;1.63;;
73814;SDS011;62145;55.648;37.602;2023-04-07T14:12:13;5.85;;;1.55;;
73814;SDS011;62145;55.648;37.602;2023-04-07T14:14:39;5.88;;;1.60;;
73814;SDS011;62145;55.648;37.602;2023-04-07T14:17:05;5.70;;;1.60;;
73814;SDS011;62145;55.648;37.602;2023-04-07T14:19:49;4.78;;;1.48;;
73814;SDS011;62145;55.648;37.602;2023-04-07T14:22:15;5.47;;;1.63;;
73814;SDS011;62145;55.648;37.602;2023-04-07T14:24:41;6.05;;;1.80;;
73814;SDS011;62145;55.648;37.602;2023-04-07T14:27:08;5.40;;;1.90;;
73814;SDS011;62145;55.648;37.602;2023-04-07T14:29:33;7.15;;;1.98;;
73814;SDS011;62145;55.648;37.602;2023-04-07T14:31:59;5.38;;;1.70;;
73814;SDS011;62145;55.648;37.602;2023-04-07T14:34:25;10.73;;;1.83;;
73814;SDS011;62145;55.648;37.602;2023-04-07T14:36:51;6.07;;;1.95;;
73814;SDS011;62145;55.648;37.602;2023-04-07T14:39:19;8.73;;;2.05;;
73814;SDS011;62145;55.648;37.602;2023-04-07T14:41:45;7.50;;;2.10;;
73814;SDS011;62145;55.648;37.602;2023-04-07T14:44:14;6.45;;;1.83;;
73814;SDS011;62145;55.648;37.602;2023-04-07T14:46:39;5.68;;;1.70;;
73814;SDS011;62145;55.648;37.602;2023-04-07T14:49:06;6.05;;;1.80;;
73814;SDS011;62145;55.648;37.602;2023-04-07T14:51:33;9.07;;;2.00;;
73814;SDS011;62145;55.648;37.602;2023-04-07T14:53:58;8.82;;;2.00;;
73814;SDS011;62145;55.648;37.602;2023-04-07T14:56:24;13.27;;;2.08;;
73814;SDS011;62145;55.648;37.602;2023-04-07T14:58:50;7.43;;;1.70;;
73814;SDS011;62145;55.648;37.602;2023-04-07T15:01:16;4.30;;;1.55;;